createdAt,value
2018-07-06T18:12:49.672Z,54.66
2018-07-06T18:27:25.881Z,69.68
2018-07-06T18:29:54.949Z,72.52
2018-07-06T18:32:24.022Z,74.59
2018-07-06T18:34:53.121Z,74.98
2018-07-06T18:37:22.182Z,75.89
2018-07-06T18:39:51.284Z,76.75
2018-07-06T18:42:20.356Z,77.39
2018-07-06T18:44:49.420Z,77.18
2018-07-06T18:47:18.521Z,77.42
2018-07-06T18:49:47.593Z,77.54
2018-07-06T18:52:16.676Z,77.34
2018-07-06T18:54:45.796Z,77.01
2018-07-06T18:57:14.890Z,77.13
2018-07-06T18:59:43.954Z,77.32
2018-07-06T19:02:13.112Z,77.51
2018-07-06T19:04:42.666Z,77.67
2018-07-06T19:07:11.790Z,77.87
2018-07-06T19:09:40.934Z,77.66
2018-07-06T19:12:09.976Z,77.61
2018-07-06T19:14:39.108Z,77.31
2018-07-06T19:17:08.170Z,77.43
2018-07-06T19:19:37.254Z,77.74
2018-07-06T19:22:06.365Z,77.22
2018-07-06T19:24:35.439Z,77.16
2018-07-06T19:27:04.560Z,76.86
2018-07-06T19:29:33.696Z,77.04
2018-07-06T19:32:02.761Z,77.46
2018-07-06T19:34:31.845Z,77.75
2018-07-06T19:37:00.947Z,77.69
2018-07-06T19:39:30.179Z,78.30
2018-07-06T19:41:59.589Z,78.13
2018-07-06T19:44:28.667Z,78.05
2018-07-06T19:46:57.815Z,77.30
2018-07-06T19:49:26.894Z,77.78
2018-07-06T19:51:56.113Z,77.66
2018-07-06T19:54:25.524Z,77.79
2018-07-06T19:56:54.796Z,77.29
2018-07-06T19:59:23.889Z,77.40
2018-07-06T20:01:52.974Z,77.41
2018-07-06T20:04:23.123Z,77.71
2018-07-06T20:06:52.188Z,77.97
2018-07-06T20:09:21.265Z,77.84
2018-07-06T20:11:50.797Z,77.41
2018-07-06T20:14:19.869Z,77.83
2018-07-06T20:16:49.075Z,77.76
2018-07-06T20:19:18.164Z,77.79
2018-07-06T20:21:47.219Z,77.43
2018-07-06T20:24:16.301Z,77.77
2018-07-06T20:26:45.368Z,77.79
2018-07-06T20:29:14.453Z,78.25
2018-07-06T20:31:43.541Z,78.72
2018-07-06T20:34:12.612Z,78.38
2018-07-06T20:36:41.710Z,78.77
2018-07-06T20:39:10.820Z,79.20
2018-07-06T20:41:39.894Z,78.90
2018-07-06T20:44:08.980Z,78.94
2018-07-06T20:46:38.043Z,78.62
2018-07-06T20:49:07.216Z,78.76
2018-07-06T20:51:36.274Z,78.58
2018-07-06T20:54:05.337Z,78.32
2018-07-06T20:56:34.392Z,78.08
2018-07-06T20:59:03.518Z,78.87
2018-07-06T21:01:32.606Z,80.29
2018-07-06T21:04:01.666Z,81.35
2018-07-06T21:06:30.772Z,82.25
2018-07-06T21:08:59.836Z,82.89
2018-07-06T21:11:28.909Z,84.33
2018-07-06T21:13:57.997Z,84.56
2018-07-06T21:16:27.086Z,85.11
2018-07-06T21:18:56.137Z,85.41
2018-07-06T21:21:25.233Z,86.79
2018-07-06T21:23:54.289Z,86.72
2018-07-06T21:26:23.337Z,87.08
2018-07-06T21:28:52.602Z,87.13
2018-07-06T21:31:21.728Z,87.06
2018-07-06T21:33:50.793Z,87.30
2018-07-06T21:36:19.877Z,87.48
2018-07-06T21:38:48.977Z,87.12
2018-07-06T21:41:18.055Z,87.38
2018-07-06T21:43:47.138Z,87.16
2018-07-06T21:46:16.309Z,86.63
2018-07-06T21:48:45.452Z,86.45
2018-07-06T21:51:14.580Z,86.66
2018-07-06T21:53:43.652Z,87.04
2018-07-06T21:56:12.729Z,87.09
2018-07-06T21:58:41.791Z,87.30
2018-07-06T22:01:10.872Z,87.00
2018-07-06T22:03:39.989Z,87.03
2018-07-06T22:06:09.058Z,87.17
2018-07-06T22:08:38.154Z,87.20
2018-07-06T22:11:07.216Z,86.55
2018-07-06T22:13:36.302Z,86.33
2018-07-06T22:16:05.534Z,86.47
2018-07-06T22:18:34.767Z,87.06
2018-07-06T22:21:03.890Z,87.26
2018-07-06T22:23:32.997Z,86.85
2018-07-06T22:26:02.069Z,87.64
2018-07-06T22:28:31.233Z,87.05
2018-07-06T22:31:00.347Z,86.99
2018-07-06T22:33:29.417Z,87.08
2018-07-06T22:35:58.497Z,87.15
2018-07-06T22:38:27.573Z,87.12
2018-07-06T22:40:56.677Z,87.05
2018-07-06T22:43:25.757Z,87.47
2018-07-06T22:45:54.815Z,87.22
2018-07-06T22:48:23.881Z,87.52
2018-07-06T22:50:53.039Z,87.49
2018-07-06T22:53:22.065Z,87.42
2018-07-06T22:55:51.133Z,87.56
2018-07-06T22:58:20.302Z,87.41
2018-07-06T23:00:49.353Z,87.63
2018-07-06T23:03:18.422Z,87.42
2018-07-06T23:05:47.498Z,87.66
2018-07-06T23:08:16.573Z,87.28
2018-07-06T23:10:45.644Z,87.59
2018-07-06T23:13:14.748Z,87.50
2018-07-06T23:15:43.861Z,87.66
2018-07-06T23:18:12.946Z,87.38
2018-07-06T23:20:42.064Z,88.11
2018-07-06T23:23:13.915Z,87.61
2018-07-06T23:25:44.248Z,87.77
2018-07-06T23:28:13.524Z,87.74
2018-07-06T23:30:42.622Z,87.48
2018-07-06T23:33:12.224Z,87.51
2018-07-06T23:35:41.326Z,87.21
2018-07-06T23:38:10.440Z,86.88
2018-07-06T23:40:39.494Z,86.52
2018-07-06T23:43:08.560Z,87.01
2018-07-06T23:45:37.728Z,86.81
2018-07-06T23:48:06.793Z,86.66
2018-07-06T23:50:35.897Z,86.79
2018-07-06T23:53:05.026Z,86.89
2018-07-06T23:55:34.090Z,86.70
2018-07-06T23:58:03.182Z,86.57
